Main page
METAR-TAF:

METAR-TAF

Airports :

Andorra–La Seu d'Urgell Airport

La Seu d'Urgell, Spain

latitude: 42-20-29N, longitude: 001-24-17E, elevation: 802 m

METAR: missing

Time: 22:45 (20:45 UTC)

Forecast

The report was made 36 hours and 45 minutes ago, at 08:00 UTC
Forecast valid from 04 at 09 UTC to 05 at 09 UTC
Wind 3 kt from variable directions
Visibility 10 km or more
Few clouds at a height of 2500 ft
Temporary
from 04 at 12 UTC to 04 at 20 UTC
Wind 10 kt from the Southwest

TAF: LESU 040800Z 0409/0509 VRB03KT 9999 FEW025 TX20/0413Z TN06/0506Z TEMPO 0412/0420 22010KT

Weather observations and forecasts of more than 4000 airports (METAR and TAF reports).

The available stations are represented by yellow and red dots on the map.

Hover mouse over dot to see the name of the station.

Then click to see weather observations and forecasts.

To change the map : click on the green buttons with a black cross to zoom in, on the green button with a dash to zoom out, or on the green arrows for adjacent maps.


METAR-TAF: